Terminal Aerodrome Forecast
Issued by NWS

Home | Current Version | Previous Version | Text Only | Print | Product List | Glossary On
Versions: 1 2 3 4 5 6 7 8 9 10 11 12 13 14 15 16 17 18
000
FTUS46 KPDT 051813 AAA
TAFALW
TAF AMD
KALW 051813Z 0518/0618 22006KT P6SM SCT025 BKN150
      TEMPO 0518/0520 BKN025
     FM060000 36008KT P6SM -SHRA SCT060 BKN100
      TEMPO 0602/0605 VRB25G40KT -TSRA BKN050CB OVC080
     FM060600 14007KT P6SM VCSH SCT060 OVC100
     FM061200 17005KT P6SM BKN100
     FM061600 20007KT P6SM SCT100 BKN200=

USA.gov is the U.S. government's official web portal to all federal, state and local government web resources and services.